AirNav   Free SoundLink Mini II speaker
 
 469 users online  

14PR Emp. Coco Beach Golf Club LLC Heliport
Rio Grande, Puerto Rico

GOING TO RIO GRANDE?


FAA INFORMATION EFFECTIVE 26 MARCH 2020

Location

FAA Identifier: 14PR
Lat/Long: 18-24-32.5700N 065-47-57.1500W
18-24.542833N 065-47.952500W
18.4090472,-65.7992083
(estimated)
Elevation: 11 ft. / 3 m (estimated)
From city: 1 mile NE of RIO GRANDE, PR
Time zone: UTC -4 (year round; does not observe DST)
Zip code: 00745

Heliport Operations

Heliport use: Private use. Permission required prior to landing
Activation date: 04/2010
Control tower: no
ARTCC: SAN JUAN CENTER
FSS: SAN JUAN FLIGHT SERVICE STATION
Attendance: 
Wind indicator: yes
Segmented circle: no
Lights: ACTVT HELI LGTS 136.1

Heliport Communications

WX ASOS at SJU (12 nm W): PHONE 787-791-6500

Nearby radio navigation aids

VOR radial/distance  VOR name  Freq  Var
SJUr113/11.1SAN JUAN VORTAC114.0011W

 
NDB name  Hdg/Dist  Freq  Var  ID
DORADO107/35.139111WDDP -.. -.. .--.

Heliport Services

Runway Information

Helipad H1

Dimensions: 40 x 40 ft. / 12 x 12 m
Surface: concrete
Runway edge lights: non-standard
Traffic pattern: leftleft

Heliport Ownership and Management from official FAA records

Ownership: Privately-owned
Owner: COCO BEACH GOLF LLC
100 CLUBHOUSE DR
RIO GRANDE, PR 00745
Phone 787-657-2000
ATTN MR. JOHN WILSON. EMAIL: JWILSON@COCOPUERTORICO.COM
Manager: ORLANDO DIAZ
100 CLUBHOUSE DR
RIO GRANDE, PR 00745
Phone (787) 220-6180
EMAIL: ODIAZ@COCOPUERTORICO.COM

Additional Remarks

HELIPAD DESIGNED FOR 12500 LBS G/W.
FOR CD CTC SAN JUAN CERAP AT 787-253-8664/8665

Instrument Procedures

There are no published instrument procedures at 14PR.

Some nearby airports with instrument procedures:

TJSJ - Luis Munoz Marin International Airport (12 nm W)
TJIG - Fernando Luis Ribas Dominicci Airport (17 nm W)
TJVQ - Antonio Rivera Rodriguez Airport (24 nm SE)
TIST - Cyril E King Airport (47 nm E)
TJPS - Mercedita Airport (50 nm SW)
 
Loc | Ops | Rwys | IFR | FBO | Links
Com | Nav | Svcs | Stats | Notes
Aerial photo
No photo
 
Sectional chart

 
Airport distance calculator
Flying to Emp. Coco Beach Golf Club LLC Heliport? Find the distance to fly.

From to 14PR

Sunrise and sunset
Times for 10-Apr-2020
 Local
(UTC-4)
 Zulu
(UTC)
Morning civil twilight05:4809:48
Sunrise06:1110:11
Sunset18:3822:38
Evening civil twilight19:0023:00

Current date and time
Zulu (UTC)  10-Apr-2020 05:36:57
Local (UTC-4)  10-Apr-2020 01:36:57
 
METAR
TJSJ 
12nm W 
100456Z 19003KT 10SM CLR 25/22 A2994 RMK AO2 SLP138 T02500222
TJNR 
13nm SE 
100453Z AUTO 24003KT 10SM CLR 25/23 A2997 RMK AO2 SLP147 T02500228
TJIG 
17nm W 
092245Z 36006KT 8SM FEW018 SCT030 27/25 A2989 RMK LAST
TAF
TJSJ 
12nm W 
091740Z 0918/1018 04008KT P6SM VCSH FEW030 SCT050 FM092200 VRB05KT P6SM FEW030 SCT060 FM101400 06015KT P6SM FEW035 SCT050
NOTAMs
Click for the latest NOTAMs
NOTAMs are issued by the DoD/FAA and will open in a separate window not controlled by AirNav.

 

 
 

Would you like to see your business listed on this page?

 If your business provides an interesting product or service to pilots, flight crews, aircraft, or users of the Emp. Coco Beach Golf Club LLC Heliport, you should consider listing it here.  To start the listing process, click on the button below
 
Add a business
 

Other Pages about Emp. Coco Beach Golf Club LLC Heliport

Update a link
 
Copyright © AirNav, LLC. All rights reserved. Privacy Policy  Contact